sensor_id;sensor_type;location;lat;lon;timestamp;temperature;humidity
4811;DHT22;2419;51.276;6.472;2023-07-24T00:00:39;17.80;99.90
4811;DHT22;2419;51.276;6.472;2023-07-24T00:03:08;17.80;99.90
4811;DHT22;2419;51.276;6.472;2023-07-24T00:05:37;17.70;99.90
4811;DHT22;2419;51.276;6.472;2023-07-24T00:08:05;17.70;99.90
4811;DHT22;2419;51.276;6.472;2023-07-24T00:10:33;17.70;99.90
4811;DHT22;2419;51.276;6.472;2023-07-24T00:13:01;17.70;99.90
4811;DHT22;2419;51.276;6.472;2023-07-24T00:15:30;17.70;99.90
4811;DHT22;2419;51.276;6.472;2023-07-24T00:17:58;17.70;99.90
4811;DHT22;2419;51.276;6.472;2023-07-24T00:20:26;17.70;99.90
4811;DHT22;2419;51.276;6.472;2023-07-24T00:22:56;17.60;99.90
4811;DHT22;2419;51.276;6.472;2023-07-24T00:25:24;17.60;99.90
4811;DHT22;2419;51.276;6.472;2023-07-24T00:27:52;17.70;99.90
4811;DHT22;2419;51.276;6.472;2023-07-24T00:30:20;17.60;99.90
4811;DHT22;2419;51.276;6.472;2023-07-24T00:32:49;17.60;99.90
4811;DHT22;2419;51.276;6.472;2023-07-24T00:35:17;17.60;99.90
4811;DHT22;2419;51.276;6.472;2023-07-24T00:37:45;17.60;99.90
4811;DHT22;2419;51.276;6.472;2023-07-24T00:40:15;17.60;99.90
4811;DHT22;2419;51.276;6.472;2023-07-24T00:42:46;17.60;99.90
4811;DHT22;2419;51.276;6.472;2023-07-24T00:45:15;17.60;99.90
4811;DHT22;2419;51.276;6.472;2023-07-24T00:47:43;17.50;99.90
4811;DHT22;2419;51.276;6.472;2023-07-24T00:50:12;17.50;99.90
4811;DHT22;2419;51.276;6.472;2023-07-24T00:52:41;17.50;99.90
4811;DHT22;2419;51.276;6.472;2023-07-24T00:55:11;17.50;99.90
4811;DHT22;2419;51.276;6.472;2023-07-24T00:57:42;17.50;99.90
4811;DHT22;2419;51.276;6.472;2023-07-24T01:00:12;17.50;99.90
4811;DHT22;2419;51.276;6.472;2023-07-24T01:02:40;17.50;99.90
4811;DHT22;2419;51.276;6.472;2023-07-24T01:05:12;17.50;99.90
4811;DHT22;2419;51.276;6.472;2023-07-24T01:07:41;17.50;99.90
4811;DHT22;2419;51.276;6.472;2023-07-24T01:10:10;17.50;99.90
4811;DHT22;2419;51.276;6.472;2023-07-24T01:12:45;17.50;99.90
4811;DHT22;2419;51.276;6.472;2023-07-24T01:15:18;17.40;99.90
4811;DHT22;2419;51.276;6.472;2023-07-24T01:17:49;17.40;99.90
4811;DHT22;2419;51.276;6.472;2023-07-24T01:20:18;17.40;99.90
4811;DHT22;2419;51.276;6.472;2023-07-24T01:23:13;17.30;99.90
4811;DHT22;2419;51.276;6.472;2023-07-24T01:25:51;17.30;99.90
4811;DHT22;2419;51.276;6.472;2023-07-24T01:28:21;17.20;99.90
4811;DHT22;2419;51.276;6.472;2023-07-24T01:30:49;17.20;99.90
4811;DHT22;2419;51.276;6.472;2023-07-24T01:33:18;17.20;99.90
4811;DHT22;2419;51.276;6.472;2023-07-24T01:35:48;17.20;99.90
4811;DHT22;2419;51.276;6.472;2023-07-24T01:38:18;17.20;99.90
4811;DHT22;2419;51.276;6.472;2023-07-24T01:40:48;17.10;99.90
4811;DHT22;2419;51.276;6.472;2023-07-24T01:43:16;17.10;99.90
4811;DHT22;2419;51.276;6.472;2023-07-24T01:45:44;17.10;99.90
4811;DHT22;2419;51.276;6.472;2023-07-24T01:48:12;17.10;99.90
4811;DHT22;2419;51.276;6.472;2023-07-24T01:50:40;17.10;99.90
4811;DHT22;2419;51.276;6.472;2023-07-24T01:53:08;17.00;99.90
4811;DHT22;2419;51.276;6.472;2023-07-24T01:55:37;17.00;99.90
4811;DHT22;2419;51.276;6.472;2023-07-24T01:58:06;17.10;99.90
4811;DHT22;2419;51.276;6.472;2023-07-24T02:00:34;17.00;99.90
4811;DHT22;2419;51.276;6.472;2023-07-24T02:03:02;17.00;99.90
4811;DHT22;2419;51.276;6.472;2023-07-24T02:05:31;17.00;99.90
4811;DHT22;2419;51.276;6.472;2023-07-24T02:07:59;16.90;99.90
4811;DHT22;2419;51.276;6.472;2023-07-24T02:10:27;17.00;99.90
4811;DHT22;2419;51.276;6.472;2023-07-24T02:12:55;17.00;99.90
4811;DHT22;2419;51.276;6.472;2023-07-24T02:15:24;17.00;99.90
4811;DHT22;2419;51.276;6.472;2023-07-24T02:17:52;17.10;99.90
4811;DHT22;2419;51.276;6.472;2023-07-24T02:20:20;17.10;99.90
4811;DHT22;2419;51.276;6.472;2023-07-24T02:22:48;17.10;99.90
4811;DHT22;2419;51.276;6.472;2023-07-24T02:25:17;17.10;99.90
4811;DHT22;2419;51.276;6.472;2023-07-24T02:27:45;17.10;99.90
4811;DHT22;2419;51.276;6.472;2023-07-24T02:30:13;17.10;99.90
4811;DHT22;2419;51.276;6.472;2023-07-24T02:32:43;17.20;99.90
4811;DHT22;2419;51.276;6.472;2023-07-24T02:35:11;17.20;99.90
4811;DHT22;2419;51.276;6.472;2023-07-24T02:37:39;17.20;99.90
4811;DHT22;2419;51.276;6.472;2023-07-24T02:40:11;17.30;99.90
4811;DHT22;2419;51.276;6.472;2023-07-24T02:42:39;17.30;99.90
4811;DHT22;2419;51.276;6.472;2023-07-24T02:45:08;17.30;99.90
4811;DHT22;2419;51.276;6.472;2023-07-24T02:47:38;17.30;99.90
4811;DHT22;2419;51.276;6.472;2023-07-24T02:50:08;17.30;99.90
4811;DHT22;2419;51.276;6.472;2023-07-24T02:52:36;17.30;99.90
4811;DHT22;2419;51.276;6.472;2023-07-24T02:55:04;17.30;99.90
4811;DHT22;2419;51.276;6.472;2023-07-24T02:57:32;17.30;99.90
4811;DHT22;2419;51.276;6.472;2023-07-24T03:00:00;17.40;99.90
4811;DHT22;2419;51.276;6.472;2023-07-24T03:02:29;17.40;99.90
4811;DHT22;2419;51.276;6.472;2023-07-24T03:04:58;17.40;99.90
4811;DHT22;2419;51.276;6.472;2023-07-24T03:07:27;17.40;99.90
4811;DHT22;2419;51.276;6.472;2023-07-24T03:09:55;17.40;99.90
4811;DHT22;2419;51.276;6.472;2023-07-24T03:12:24;17.50;99.90
4811;DHT22;2419;51.276;6.472;2023-07-24T03:14:52;17.50;99.90
4811;DHT22;2419;51.276;6.472;2023-07-24T03:17:20;17.50;99.90
4811;DHT22;2419;51.276;6.472;2023-07-24T03:19:49;17.60;99.90
4811;DHT22;2419;51.276;6.472;2023-07-24T03:22:17;17.60;99.90
4811;DHT22;2419;51.276;6.472;2023-07-24T03:24:47;17.60;99.90
4811;DHT22;2419;51.276;6.472;2023-07-24T03:27:15;17.60;99.90
4811;DHT22;2419;51.276;6.472;2023-07-24T03:29:43;17.60;99.90
4811;DHT22;2419;51.276;6.472;2023-07-24T03:32:11;17.70;99.90
4811;DHT22;2419;51.276;6.472;2023-07-24T03:34:41;17.70;99.90
4811;DHT22;2419;51.276;6.472;2023-07-24T03:37:09;17.70;99.90
4811;DHT22;2419;51.276;6.472;2023-07-24T03:39:37;17.70;99.90
4811;DHT22;2419;51.276;6.472;2023-07-24T03:42:09;17.70;99.90
4811;DHT22;2419;51.276;6.472;2023-07-24T03:44:39;17.70;99.90
4811;DHT22;2419;51.276;6.472;2023-07-24T03:47:07;17.70;99.90
4811;DHT22;2419;51.276;6.472;2023-07-24T03:49:35;17.80;99.90
4811;DHT22;2419;51.276;6.472;2023-07-24T03:52:04;17.80;99.90
4811;DHT22;2419;51.276;6.472;2023-07-24T03:54:32;17.80;99.90
4811;DHT22;2419;51.276;6.472;2023-07-24T03:57:00;17.80;99.90
4811;DHT22;2419;51.276;6.472;2023-07-24T03:59:30;17.80;99.90
4811;DHT22;2419;51.276;6.472;2023-07-24T04:01:59;17.80;99.90
4811;DHT22;2419;51.276;6.472;2023-07-24T04:04:27;17.80;99.90
4811;DHT22;2419;51.276;6.472;2023-07-24T04:06:55;17.80;99.90
4811;DHT22;2419;51.276;6.472;2023-07-24T04:09:23;17.80;99.90
4811;DHT22;2419;51.276;6.472;2023-07-24T04:11:51;17.80;99.90
4811;DHT22;2419;51.276;6.472;2023-07-24T04:14:19;17.80;99.90
4811;DHT22;2419;51.276;6.472;2023-07-24T04:16:48;17.70;99.90
4811;DHT22;2419;51.276;6.472;2023-07-24T04:19:16;17.70;99.90
4811;DHT22;2419;51.276;6.472;2023-07-24T04:21:44;17.60;99.90
4811;DHT22;2419;51.276;6.472;2023-07-24T04:24:12;17.70;99.90
4811;DHT22;2419;51.276;6.472;2023-07-24T04:26:40;17.70;99.90
4811;DHT22;2419;51.276;6.472;2023-07-24T04:29:09;17.60;99.90
4811;DHT22;2419;51.276;6.472;2023-07-24T04:31:37;17.60;99.90
4811;DHT22;2419;51.276;6.472;2023-07-24T04:34:06;17.70;99.90
4811;DHT22;2419;51.276;6.472;2023-07-24T04:36:34;17.70;99.90
4811;DHT22;2419;51.276;6.472;2023-07-24T04:39:02;17.70;99.90
4811;DHT22;2419;51.276;6.472;2023-07-24T04:41:30;17.60;99.90
4811;DHT22;2419;51.276;6.472;2023-07-24T04:43:58;17.60;99.90
4811;DHT22;2419;51.276;6.472;2023-07-24T04:46:26;17.70;99.90
4811;DHT22;2419;51.276;6.472;2023-07-24T04:48:55;17.70;99.90
4811;DHT22;2419;51.276;6.472;2023-07-24T04:51:24;17.70;99.90
4811;DHT22;2419;51.276;6.472;2023-07-24T04:53:53;17.70;99.90
4811;DHT22;2419;51.276;6.472;2023-07-24T04:56:22;17.70;99.90
4811;DHT22;2419;51.276;6.472;2023-07-24T04:58:50;17.70;99.90
4811;DHT22;2419;51.276;6.472;2023-07-24T05:01:18;17.70;99.90
4811;DHT22;2419;51.276;6.472;2023-07-24T05:03:47;17.70;99.90
4811;DHT22;2419;51.276;6.472;2023-07-24T05:06:15;17.80;99.90
4811;DHT22;2419;51.276;6.472;2023-07-24T05:08:44;17.80;99.90
4811;DHT22;2419;51.276;6.472;2023-07-24T05:11:12;17.80;99.90
4811;DHT22;2419;51.276;6.472;2023-07-24T05:13:40;17.80;99.90
4811;DHT22;2419;51.276;6.472;2023-07-24T05:16:08;17.80;99.90
4811;DHT22;2419;51.276;6.472;2023-07-24T05:18:36;17.80;99.90
4811;DHT22;2419;51.276;6.472;2023-07-24T05:21:06;17.80;99.90
4811;DHT22;2419;51.276;6.472;2023-07-24T05:23:34;17.80;99.90
4811;DHT22;2419;51.276;6.472;2023-07-24T05:26:04;17.80;99.90
4811;DHT22;2419;51.276;6.472;2023-07-24T05:28:32;17.90;99.90
4811;DHT22;2419;51.276;6.472;2023-07-24T05:31:01;17.80;99.90
4811;DHT22;2419;51.276;6.472;2023-07-24T05:33:29;17.80;99.90
4811;DHT22;2419;51.276;6.472;2023-07-24T05:35:58;17.90;99.90
4811;DHT22;2419;51.276;6.472;2023-07-24T05:38:26;17.90;99.90
4811;DHT22;2419;51.276;6.472;2023-07-24T05:40:55;17.90;99.90
4811;DHT22;2419;51.276;6.472;2023-07-24T05:43:25;17.90;99.90
4811;DHT22;2419;51.276;6.472;2023-07-24T05:45:55;17.90;99.90
4811;DHT22;2419;51.276;6.472;2023-07-24T05:48:23;17.90;99.90
4811;DHT22;2419;51.276;6.472;2023-07-24T05:50:51;18.00;99.90
4811;DHT22;2419;51.276;6.472;2023-07-24T05:53:19;18.00;99.90
4811;DHT22;2419;51.276;6.472;2023-07-24T05:55:56;18.10;99.90
4811;DHT22;2419;51.276;6.472;2023-07-24T05:58:26;18.10;99.90
4811;DHT22;2419;51.276;6.472;2023-07-24T06:00:54;18.20;99.90
4811;DHT22;2419;51.276;6.472;2023-07-24T06:03:23;18.30;99.90
4811;DHT22;2419;51.276;6.472;2023-07-24T06:05:51;18.40;99.90
4811;DHT22;2419;51.276;6.472;2023-07-24T06:08:21;18.50;99.90
4811;DHT22;2419;51.276;6.472;2023-07-24T06:10:50;18.70;99.90
4811;DHT22;2419;51.276;6.472;2023-07-24T06:13:18;18.90;99.90
4811;DHT22;2419;51.276;6.472;2023-07-24T06:15:49;19.00;99.90
4811;DHT22;2419;51.276;6.472;2023-07-24T06:18:17;19.00;99.90
4811;DHT22;2419;51.276;6.472;2023-07-24T06:20:46;19.00;99.90
4811;DHT22;2419;51.276;6.472;2023-07-24T06:23:16;18.90;99.90
4811;DHT22;2419;51.276;6.472;2023-07-24T06:25:44;18.90;99.90
4811;DHT22;2419;51.276;6.472;2023-07-24T06:28:12;18.80;99.90
4811;DHT22;2419;51.276;6.472;2023-07-24T06:30:41;18.80;99.90
4811;DHT22;2419;51.276;6.472;2023-07-24T06:33:10;18.80;99.90
4811;DHT22;2419;51.276;6.472;2023-07-24T06:35:38;18.80;99.90
4811;DHT22;2419;51.276;6.472;2023-07-24T06:38:06;18.80;99.90
4811;DHT22;2419;51.276;6.472;2023-07-24T06:40:35;18.80;99.90
4811;DHT22;2419;51.276;6.472;2023-07-24T06:43:03;18.90;99.90
4811;DHT22;2419;51.276;6.472;2023-07-24T06:45:31;18.90;99.90
4811;DHT22;2419;51.276;6.472;2023-07-24T06:47:59;18.90;99.90
4811;DHT22;2419;51.276;6.472;2023-07-24T06:50:29;18.80;99.90
4811;DHT22;2419;51.276;6.472;2023-07-24T06:52:57;18.80;99.90
4811;DHT22;2419;51.276;6.472;2023-07-24T06:55:25;18.70;99.90
4811;DHT22;2419;51.276;6.472;2023-07-24T06:57:53;18.70;99.90
4811;DHT22;2419;51.276;6.472;2023-07-24T07:00:21;18.70;99.90
4811;DHT22;2419;51.276;6.472;2023-07-24T07:02:49;18.70;99.90
4811;DHT22;2419;51.276;6.472;2023-07-24T07:05:17;18.60;99.90
4811;DHT22;2419;51.276;6.472;2023-07-24T07:07:46;18.60;99.90
4811;DHT22;2419;51.276;6.472;2023-07-24T07:10:14;18.60;99.90
4811;DHT22;2419;51.276;6.472;2023-07-24T07:12:42;18.60;99.90
4811;DHT22;2419;51.276;6.472;2023-07-24T07:15:10;18.50;99.90
4811;DHT22;2419;51.276;6.472;2023-07-24T07:17:39;18.50;99.90
4811;DHT22;2419;51.276;6.472;2023-07-24T07:20:08;18.50;99.90
4811;DHT22;2419;51.276;6.472;2023-07-24T07:22:36;18.50;99.90
4811;DHT22;2419;51.276;6.472;2023-07-24T07:25:06;18.50;99.90
4811;DHT22;2419;51.276;6.472;2023-07-24T07:27:34;18.40;99.90
4811;DHT22;2419;51.276;6.472;2023-07-24T07:30:03;18.40;99.90
4811;DHT22;2419;51.276;6.472;2023-07-24T07:32:31;18.40;99.90
4811;DHT22;2419;51.276;6.472;2023-07-24T07:35:00;18.40;99.90
4811;DHT22;2419;51.276;6.472;2023-07-24T07:37:28;18.50;99.90
4811;DHT22;2419;51.276;6.472;2023-07-24T07:39:56;18.60;99.90
4811;DHT22;2419;51.276;6.472;2023-07-24T07:42:25;18.60;99.90
4811;DHT22;2419;51.276;6.472;2023-07-24T07:44:53;18.50;99.90
4811;DHT22;2419;51.276;6.472;2023-07-24T07:47:21;18.30;99.90
4811;DHT22;2419;51.276;6.472;2023-07-24T07:49:50;18.40;99.90
4811;DHT22;2419;51.276;6.472;2023-07-24T07:52:18;18.30;99.90
4811;DHT22;2419;51.276;6.472;2023-07-24T07:54:47;18.10;99.90
4811;DHT22;2419;51.276;6.472;2023-07-24T07:57:15;18.10;99.90
4811;DHT22;2419;51.276;6.472;2023-07-24T07:59:45;18.10;99.90
4811;DHT22;2419;51.276;6.472;2023-07-24T08:02:13;18.10;99.90
4811;DHT22;2419;51.276;6.472;2023-07-24T08:04:41;18.10;99.90
4811;DHT22;2419;51.276;6.472;2023-07-24T08:07:09;18.30;99.90
4811;DHT22;2419;51.276;6.472;2023-07-24T08:09:37;18.40;99.90
4811;DHT22;2419;51.276;6.472;2023-07-24T08:12:06;18.40;99.90
4811;DHT22;2419;51.276;6.472;2023-07-24T08:14:34;18.50;99.90
4811;DHT22;2419;51.276;6.472;2023-07-24T08:17:04;18.50;99.90
4811;DHT22;2419;51.276;6.472;2023-07-24T08:19:32;18.80;99.90
4811;DHT22;2419;51.276;6.472;2023-07-24T08:22:01;19.00;99.90
4811;DHT22;2419;51.276;6.472;2023-07-24T08:24:29;19.00;99.90
4811;DHT22;2419;51.276;6.472;2023-07-24T08:26:57;19.20;99.90
4811;DHT22;2419;51.276;6.472;2023-07-24T08:29:25;19.20;99.90
4811;DHT22;2419;51.276;6.472;2023-07-24T08:31:53;19.50;99.90
4811;DHT22;2419;51.276;6.472;2023-07-24T08:34:22;19.60;99.90
4811;DHT22;2419;51.276;6.472;2023-07-24T08:36:50;19.60;99.90
4811;DHT22;2419;51.276;6.472;2023-07-24T08:39:18;19.70;99.90
4811;DHT22;2419;51.276;6.472;2023-07-24T08:41:46;19.80;99.90
4811;DHT22;2419;51.276;6.472;2023-07-24T08:44:15;19.70;99.90
4811;DHT22;2419;51.276;6.472;2023-07-24T08:46:44;19.50;99.90
4811;DHT22;2419;51.276;6.472;2023-07-24T08:49:14;19.40;99.90
4811;DHT22;2419;51.276;6.472;2023-07-24T08:51:44;19.50;99.90
4811;DHT22;2419;51.276;6.472;2023-07-24T08:54:12;19.70;99.90
4811;DHT22;2419;51.276;6.472;2023-07-24T08:56:41;19.80;99.90
4811;DHT22;2419;51.276;6.472;2023-07-24T08:59:13;19.90;99.90
4811;DHT22;2419;51.276;6.472;2023-07-24T09:01:41;19.70;99.90
4811;DHT22;2419;51.276;6.472;2023-07-24T09:04:10;19.60;99.90
4811;DHT22;2419;51.276;6.472;2023-07-24T09:06:38;19.50;99.90
4811;DHT22;2419;51.276;6.472;2023-07-24T09:09:13;19.50;99.90
4811;DHT22;2419;51.276;6.472;2023-07-24T09:11:50;19.40;99.90
4811;DHT22;2419;51.276;6.472;2023-07-24T09:14:23;19.50;99.90
4811;DHT22;2419;51.276;6.472;2023-07-24T09:17:02;19.60;99.90
4811;DHT22;2419;51.276;6.472;2023-07-24T09:19:30;19.70;99.90
4811;DHT22;2419;51.276;6.472;2023-07-24T09:22:08;19.60;99.90
4811;DHT22;2419;51.276;6.472;2023-07-24T09:24:48;19.60;99.90
4811;DHT22;2419;51.276;6.472;2023-07-24T09:27:16;19.60;99.90
4811;DHT22;2419;51.276;6.472;2023-07-24T09:29:45;19.70;99.90
4811;DHT22;2419;51.276;6.472;2023-07-24T09:32:20;19.60;99.90
4811;DHT22;2419;51.276;6.472;2023-07-24T09:34:49;19.80;99.90
4811;DHT22;2419;51.276;6.472;2023-07-24T09:37:26;19.80;99.90
4811;DHT22;2419;51.276;6.472;2023-07-24T09:39:55;19.90;99.90
4811;DHT22;2419;51.276;6.472;2023-07-24T09:42:30;20.30;99.90
4811;DHT22;2419;51.276;6.472;2023-07-24T09:44:58;20.60;99.90
4811;DHT22;2419;51.276;6.472;2023-07-24T09:47:26;20.70;99.90
4811;DHT22;2419;51.276;6.472;2023-07-24T09:50:14;20.50;99.90
4811;DHT22;2419;51.276;6.472;2023-07-24T09:52:43;20.70;99.90
4811;DHT22;2419;51.276;6.472;2023-07-24T09:55:19;20.80;99.90
4811;DHT22;2419;51.276;6.472;2023-07-24T09:57:51;20.70;99.90
4811;DHT22;2419;51.276;6.472;2023-07-24T10:00:21;20.60;99.90
4811;DHT22;2419;51.276;6.472;2023-07-24T10:02:50;20.40;99.90
4811;DHT22;2419;51.276;6.472;2023-07-24T10:05:18;20.20;99.90
4811;DHT22;2419;51.276;6.472;2023-07-24T10:07:47;20.10;99.90
4811;DHT22;2419;51.276;6.472;2023-07-24T10:10:17;19.90;99.90
4811;DHT22;2419;51.276;6.472;2023-07-24T10:12:45;19.80;99.90
4811;DHT22;2419;51.276;6.472;2023-07-24T10:15:14;19.50;99.90
4811;DHT22;2419;51.276;6.472;2023-07-24T10:17:42;19.30;99.90
4811;DHT22;2419;51.276;6.472;2023-07-24T10:20:11;19.20;99.90
4811;DHT22;2419;51.276;6.472;2023-07-24T10:22:41;19.20;99.90
4811;DHT22;2419;51.276;6.472;2023-07-24T10:25:11;19.10;99.90
4811;DHT22;2419;51.276;6.472;2023-07-24T10:27:42;19.20;99.90
4811;DHT22;2419;51.276;6.472;2023-07-24T10:30:10;19.20;99.90
4811;DHT22;2419;51.276;6.472;2023-07-24T10:33:06;19.20;99.90
4811;DHT22;2419;51.276;6.472;2023-07-24T10:35:39;19.20;99.90
4811;DHT22;2419;51.276;6.472;2023-07-24T10:38:07;19.20;99.90
4811;DHT22;2419;51.276;6.472;2023-07-24T10:40:36;19.20;99.90
4811;DHT22;2419;51.276;6.472;2023-07-24T10:43:09;19.20;99.90
4811;DHT22;2419;51.276;6.472;2023-07-24T10:45:45;19.30;99.90
4811;DHT22;2419;51.276;6.472;2023-07-24T10:48:14;19.20;99.90
4811;DHT22;2419;51.276;6.472;2023-07-24T10:50:44;19.20;99.90
4811;DHT22;2419;51.276;6.472;2023-07-24T10:53:17;19.20;99.90
4811;DHT22;2419;51.276;6.472;2023-07-24T10:55:47;19.20;99.90
4811;DHT22;2419;51.276;6.472;2023-07-24T10:58:16;19.20;99.90
4811;DHT22;2419;51.276;6.472;2023-07-24T11:00:45;19.10;99.90
4811;DHT22;2419;51.276;6.472;2023-07-24T11:03:14;19.10;99.90
4811;DHT22;2419;51.276;6.472;2023-07-24T11:05:44;18.90;99.90
4811;DHT22;2419;51.276;6.472;2023-07-24T11:08:14;18.70;99.90
4811;DHT22;2419;51.276;6.472;2023-07-24T11:10:45;18.70;99.90
4811;DHT22;2419;51.276;6.472;2023-07-24T11:13:15;18.50;99.90
4811;DHT22;2419;51.276;6.472;2023-07-24T11:15:44;18.40;99.90
4811;DHT22;2419;51.276;6.472;2023-07-24T11:18:12;18.30;99.90
4811;DHT22;2419;51.276;6.472;2023-07-24T11:20:44;18.20;99.90
4811;DHT22;2419;51.276;6.472;2023-07-24T11:23:13;18.10;99.90
4811;DHT22;2419;51.276;6.472;2023-07-24T11:25:41;18.10;99.90
4811;DHT22;2419;51.276;6.472;2023-07-24T11:28:11;18.00;99.90
4811;DHT22;2419;51.276;6.472;2023-07-24T11:30:41;18.00;99.90
4811;DHT22;2419;51.276;6.472;2023-07-24T11:33:11;18.10;99.90
4811;DHT22;2419;51.276;6.472;2023-07-24T11:35:43;18.20;99.90
4811;DHT22;2419;51.276;6.472;2023-07-24T11:38:11;18.40;99.90
4811;DHT22;2419;51.276;6.472;2023-07-24T11:40:41;19.10;99.90
4811;DHT22;2419;51.276;6.472;2023-07-24T11:43:15;20.00;99.90
4811;DHT22;2419;51.276;6.472;2023-07-24T11:45:45;20.40;99.90
4811;DHT22;2419;51.276;6.472;2023-07-24T11:48:13;20.40;99.90
4811;DHT22;2419;51.276;6.472;2023-07-24T11:50:43;20.60;99.90
4811;DHT22;2419;51.276;6.472;2023-07-24T11:53:19;20.10;99.90
4811;DHT22;2419;51.276;6.472;2023-07-24T11:55:49;19.90;99.90
4811;DHT22;2419;51.276;6.472;2023-07-24T11:58:20;19.80;99.90
4811;DHT22;2419;51.276;6.472;2023-07-24T12:00:50;19.70;99.90
4811;DHT22;2419;51.276;6.472;2023-07-24T12:03:20;19.50;99.90
4811;DHT22;2419;51.276;6.472;2023-07-24T12:05:48;19.60;99.90
4811;DHT22;2419;51.276;6.472;2023-07-24T12:08:19;19.80;99.90
4811;DHT22;2419;51.276;6.472;2023-07-24T12:10:50;19.80;99.90
4811;DHT22;2419;51.276;6.472;2023-07-24T12:13:18;19.80;99.90
4811;DHT22;2419;51.276;6.472;2023-07-24T12:15:47;20.00;99.90
4811;DHT22;2419;51.276;6.472;2023-07-24T12:18:17;20.00;99.90
4811;DHT22;2419;51.276;6.472;2023-07-24T12:20:45;20.10;99.90
4811;DHT22;2419;51.276;6.472;2023-07-24T12:23:14;20.20;99.90
4811;DHT22;2419;51.276;6.472;2023-07-24T12:25:42;20.40;99.90
4811;DHT22;2419;51.276;6.472;2023-07-24T12:28:10;20.50;99.90
4811;DHT22;2419;51.276;6.472;2023-07-24T12:30:39;20.60;99.90
4811;DHT22;2419;51.276;6.472;2023-07-24T12:33:07;20.50;99.90
4811;DHT22;2419;51.276;6.472;2023-07-24T12:35:36;20.40;99.90
4811;DHT22;2419;51.276;6.472;2023-07-24T12:38:04;20.30;99.90
4811;DHT22;2419;51.276;6.472;2023-07-24T12:40:32;20.30;99.90
4811;DHT22;2419;51.276;6.472;2023-07-24T12:43:00;20.40;99.90
4811;DHT22;2419;51.276;6.472;2023-07-24T12:45:28;20.40;99.90
4811;DHT22;2419;51.276;6.472;2023-07-24T12:47:56;20.50;99.90
4811;DHT22;2419;51.276;6.472;2023-07-24T12:50:25;20.60;99.90
4811;DHT22;2419;51.276;6.472;2023-07-24T12:52:54;20.80;99.90
4811;DHT22;2419;51.276;6.472;2023-07-24T12:55:23;21.00;99.90
4811;DHT22;2419;51.276;6.472;2023-07-24T12:57:51;21.40;99.90
4811;DHT22;2419;51.276;6.472;2023-07-24T13:00:19;21.70;99.90
4811;DHT22;2419;51.276;6.472;2023-07-24T13:02:47;22.20;99.90
4811;DHT22;2419;51.276;6.472;2023-07-24T13:05:15;22.50;99.90
4811;DHT22;2419;51.276;6.472;2023-07-24T13:07:43;22.70;99.90
4811;DHT22;2419;51.276;6.472;2023-07-24T13:10:14;22.90;99.90
4811;DHT22;2419;51.276;6.472;2023-07-24T13:12:42;22.80;99.90
4811;DHT22;2419;51.276;6.472;2023-07-24T13:15:11;22.50;99.90
4811;DHT22;2419;51.276;6.472;2023-07-24T13:17:39;22.30;99.90
4811;DHT22;2419;51.276;6.472;2023-07-24T13:20:08;22.50;99.90
4811;DHT22;2419;51.276;6.472;2023-07-24T13:22:36;22.50;99.90
4811;DHT22;2419;51.276;6.472;2023-07-24T13:25:04;22.30;99.90
4811;DHT22;2419;51.276;6.472;2023-07-24T13:27:35;22.40;99.90
4811;DHT22;2419;51.276;6.472;2023-07-24T13:30:03;22.60;99.90
4811;DHT22;2419;51.276;6.472;2023-07-24T13:32:31;22.10;99.90
4811;DHT22;2419;51.276;6.472;2023-07-24T13:34:59;22.10;99.90
4811;DHT22;2419;51.276;6.472;2023-07-24T13:37:27;22.10;99.90
4811;DHT22;2419;51.276;6.472;2023-07-24T13:39:56;21.80;99.90
4811;DHT22;2419;51.276;6.472;2023-07-24T13:42:24;21.50;99.90
4811;DHT22;2419;51.276;6.472;2023-07-24T13:44:53;21.60;99.90
4811;DHT22;2419;51.276;6.472;2023-07-24T13:47:21;21.70;99.90
4811;DHT22;2419;51.276;6.472;2023-07-24T13:49:49;21.70;99.90
4811;DHT22;2419;51.276;6.472;2023-07-24T13:52:17;21.40;99.90
4811;DHT22;2419;51.276;6.472;2023-07-24T13:54:45;21.40;99.90
4811;DHT22;2419;51.276;6.472;2023-07-24T13:57:13;21.20;99.90
4811;DHT22;2419;51.276;6.472;2023-07-24T13:59:41;21.10;99.90
4811;DHT22;2419;51.276;6.472;2023-07-24T14:02:11;20.90;99.90
4811;DHT22;2419;51.276;6.472;2023-07-24T14:04:39;20.70;99.90
4811;DHT22;2419;51.276;6.472;2023-07-24T14:07:08;20.60;99.90
4811;DHT22;2419;51.276;6.472;2023-07-24T14:09:36;20.50;99.90
4811;DHT22;2419;51.276;6.472;2023-07-24T14:12:07;20.40;99.90
4811;DHT22;2419;51.276;6.472;2023-07-24T14:14:36;20.40;99.90
4811;DHT22;2419;51.276;6.472;2023-07-24T14:17:04;20.40;99.90
4811;DHT22;2419;51.276;6.472;2023-07-24T14:19:33;20.50;99.90
4811;DHT22;2419;51.276;6.472;2023-07-24T14:22:01;20.60;99.90
4811;DHT22;2419;51.276;6.472;2023-07-24T14:24:29;20.80;99.90
4811;DHT22;2419;51.276;6.472;2023-07-24T14:26:57;20.90;99.90
4811;DHT22;2419;51.276;6.472;2023-07-24T14:29:25;21.00;99.90
4811;DHT22;2419;51.276;6.472;2023-07-24T14:31:53;21.40;99.90
4811;DHT22;2419;51.276;6.472;2023-07-24T14:34:22;21.80;99.90
4811;DHT22;2419;51.276;6.472;2023-07-24T14:36:51;22.10;99.90
4811;DHT22;2419;51.276;6.472;2023-07-24T14:39:19;22.10;99.90
4811;DHT22;2419;51.276;6.472;2023-07-24T14:41:47;22.30;99.90
4811;DHT22;2419;51.276;6.472;2023-07-24T14:44:15;22.60;99.90
4811;DHT22;2419;51.276;6.472;2023-07-24T14:46:43;22.90;99.90
4811;DHT22;2419;51.276;6.472;2023-07-24T14:49:11;22.90;99.90
4811;DHT22;2419;51.276;6.472;2023-07-24T14:51:39;22.80;99.90
4811;DHT22;2419;51.276;6.472;2023-07-24T14:54:09;22.90;99.90
4811;DHT22;2419;51.276;6.472;2023-07-24T14:56:37;22.90;99.90
4811;DHT22;2419;51.276;6.472;2023-07-24T14:59:22;22.80;99.90
4811;DHT22;2419;51.276;6.472;2023-07-24T15:01:50;23.00;99.90
4811;DHT22;2419;51.276;6.472;2023-07-24T15:04:19;22.90;99.90
4811;DHT22;2419;51.276;6.472;2023-07-24T15:06:47;22.80;99.90
4811;DHT22;2419;51.276;6.472;2023-07-24T15:09:16;22.70;99.90
4811;DHT22;2419;51.276;6.472;2023-07-24T15:11:44;22.60;99.90
4811;DHT22;2419;51.276;6.472;2023-07-24T15:14:12;22.20;99.90
4811;DHT22;2419;51.276;6.472;2023-07-24T15:16:40;22.00;99.90
4811;DHT22;2419;51.276;6.472;2023-07-24T15:19:08;22.00;99.90
4811;DHT22;2419;51.276;6.472;2023-07-24T15:21:37;22.00;99.90
4811;DHT22;2419;51.276;6.472;2023-07-24T15:24:05;22.00;99.90
4811;DHT22;2419;51.276;6.472;2023-07-24T15:26:34;21.90;99.90
4811;DHT22;2419;51.276;6.472;2023-07-24T15:29:02;21.30;99.90
4811;DHT22;2419;51.276;6.472;2023-07-24T15:31:30;21.00;99.90
4811;DHT22;2419;51.276;6.472;2023-07-24T15:34:03;21.20;99.90
4811;DHT22;2419;51.276;6.472;2023-07-24T15:36:32;21.30;99.90
4811;DHT22;2419;51.276;6.472;2023-07-24T15:39:00;21.30;99.90
4811;DHT22;2419;51.276;6.472;2023-07-24T15:41:28;21.20;99.90
4811;DHT22;2419;51.276;6.472;2023-07-24T15:43:58;21.10;99.90
4811;DHT22;2419;51.276;6.472;2023-07-24T15:46:27;21.00;99.90
4811;DHT22;2419;51.276;6.472;2023-07-24T15:48:58;20.70;99.90
4811;DHT22;2419;51.276;6.472;2023-07-24T15:51:26;20.50;99.90
4811;DHT22;2419;51.276;6.472;2023-07-24T15:53:55;20.40;99.90
4811;DHT22;2419;51.276;6.472;2023-07-24T15:56:23;20.30;99.90
4811;DHT22;2419;51.276;6.472;2023-07-24T15:58:51;20.20;99.90
4811;DHT22;2419;51.276;6.472;2023-07-24T16:01:21;20.00;99.90
4811;DHT22;2419;51.276;6.472;2023-07-24T16:03:49;19.80;99.90
4811;DHT22;2419;51.276;6.472;2023-07-24T16:06:17;19.70;99.90
4811;DHT22;2419;51.276;6.472;2023-07-24T16:08:45;19.40;99.90
4811;DHT22;2419;51.276;6.472;2023-07-24T16:11:13;19.20;99.90
4811;DHT22;2419;51.276;6.472;2023-07-24T16:13:42;18.60;99.90